sensor_id;sensor_type;location;lat;lon;timestamp;pressure;altitude;pressure_sealevel;temperature;humidity
15914;BME280;8055;51.930;8.840;2023-06-14T00:02:11;75201.91;;;-145.72;48.55
15914;BME280;8055;51.930;8.840;2023-06-14T00:04:36;75226.72;;;-145.72;50.56
15914;BME280;8055;51.930;8.840;2023-06-14T00:07:04;75232.94;;;-145.72;50.20
15914;BME280;8055;51.930;8.840;2023-06-14T00:09:29;75228.78;;;-145.72;50.05
15914;BME280;8055;51.930;8.840;2023-06-14T00:11:55;75235.00;;;-145.72;49.02
15914;BME280;8055;51.930;8.840;2023-06-14T00:14:20;75249.47;;;-145.72;50.65
15914;BME280;8055;51.930;8.840;2023-06-14T00:16:46;75270.16;;;-145.72;49.96
15914;BME280;8055;51.930;8.840;2023-06-14T00:19:11;75290.84;;;-145.72;51.23
15914;BME280;8055;51.930;8.840;2023-06-14T00:21:37;75290.84;;;-145.72;52.21
15914;BME280;8055;51.930;8.840;2023-06-14T00:24:03;75299.13;;;-145.72;52.04
15914;BME280;8055;51.930;8.840;2023-06-14T00:26:29;75307.41;;;-145.72;51.55
15914;BME280;8055;51.930;8.840;2023-06-14T00:28:55;75315.69;;;-145.72;50.65
15914;BME280;8055;51.930;8.840;2023-06-14T00:31:23;75313.63;;;-145.72;53.31
15914;BME280;8055;51.930;8.840;2023-06-14T00:33:48;75319.81;;;-145.72;52.55
15914;BME280;8055;51.930;8.840;2023-06-14T00:36:14;75334.31;;;-145.72;52.20
15914;BME280;8055;51.930;8.840;2023-06-14T00:38:39;75328.09;;;-145.72;52.25
15914;BME280;8055;51.930;8.840;2023-06-14T00:41:05;75336.38;;;-145.72;53.11
15914;BME280;8055;51.930;8.840;2023-06-14T00:43:30;75336.38;;;-145.72;53.66
15914;BME280;8055;51.930;8.840;2023-06-14T00:45:56;75326.03;;;-145.72;51.84
15914;BME280;8055;51.930;8.840;2023-06-14T00:48:22;75334.31;;;-145.72;52.21
15914;BME280;8055;51.930;8.840;2023-06-14T00:50:49;75338.44;;;-145.72;52.96
15914;BME280;8055;51.930;8.840;2023-06-14T00:53:16;75330.16;;;-145.72;52.23
15914;BME280;8055;51.930;8.840;2023-06-14T00:55:46;75344.66;;;-145.72;51.87
15914;BME280;8055;51.930;8.840;2023-06-14T00:58:12;75346.72;;;-145.72;51.88
15914;BME280;8055;51.930;8.840;2023-06-14T01:00:37;75361.22;;;-145.72;54.11
15914;BME280;8055;51.930;8.840;2023-06-14T01:03:03;75355.00;;;-145.72;53.63
15914;BME280;8055;51.930;8.840;2023-06-14T01:05:30;75363.28;;;-145.72;54.54
15914;BME280;8055;51.930;8.840;2023-06-14T01:08:19;75373.63;;;-145.72;55.01
15914;BME280;8055;51.930;8.840;2023-06-14T01:10:53;75371.56;;;-145.72;54.77
15914;BME280;8055;51.930;8.840;2023-06-14T01:13:34;75381.91;;;-145.72;54.53
15914;BME280;8055;51.930;8.840;2023-06-14T01:16:00;75379.81;;;-145.72;53.38
15914;BME280;8055;51.930;8.840;2023-06-14T01:18:28;75379.81;;;-145.72;54.75
15914;BME280;8055;51.930;8.840;2023-06-14T01:20:54;75398.44;;;-145.72;54.35
15914;BME280;8055;51.930;8.840;2023-06-14T01:23:21;75419.13;;;-145.72;57.08
15914;BME280;8055;51.930;8.840;2023-06-14T01:25:48;75435.69;;;-145.72;57.29
15914;BME280;8055;51.930;8.840;2023-06-14T01:28:20;75431.56;;;-145.72;58.89
15914;BME280;8055;51.930;8.840;2023-06-14T01:30:47;75446.03;;;-145.72;59.01
15914;BME280;8055;51.930;8.840;2023-06-14T01:33:19;75456.38;;;-145.72;57.40
15914;BME280;8055;51.930;8.840;2023-06-14T01:35:52;75475.00;;;-145.72;58.73
15914;BME280;8055;51.930;8.840;2023-06-14T01:38:20;75475.00;;;-145.72;58.15
15914;BME280;8055;51.930;8.840;2023-06-14T01:40:47;75506.03;;;-145.72;60.06
15914;BME280;8055;51.930;8.840;2023-06-14T01:43:14;75539.16;;;-145.72;60.70
15914;BME280;8055;51.930;8.840;2023-06-14T01:45:42;75576.38;;;-145.72;62.48
15914;BME280;8055;51.930;8.840;2023-06-14T01:48:08;75584.66;;;-145.72;64.44
15914;BME280;8055;51.930;8.840;2023-06-14T01:50:33;75592.94;;;-145.72;59.78
15914;BME280;8055;51.930;8.840;2023-06-14T01:52:59;75609.50;;;-145.72;63.56
15914;BME280;8055;51.930;8.840;2023-06-14T01:55:25;75609.50;;;-145.72;64.55
15914;BME280;8055;51.930;8.840;2023-06-14T01:57:51;75638.47;;;-145.72;65.08
15914;BME280;8055;51.930;8.840;2023-06-14T02:00:17;75642.59;;;-145.72;64.60
15914;BME280;8055;51.930;8.840;2023-06-14T02:02:43;75638.47;;;-145.72;64.01
15914;BME280;8055;51.930;8.840;2023-06-14T02:05:09;75665.38;;;-145.72;66.49
15914;BME280;8055;51.930;8.840;2023-06-14T02:07:35;75669.50;;;-145.72;67.66
15914;BME280;8055;51.930;8.840;2023-06-14T02:10:01;75684.00;;;-145.72;66.86
15914;BME280;8055;51.930;8.840;2023-06-14T02:12:26;75675.72;;;-145.72;65.19
15914;BME280;8055;51.930;8.840;2023-06-14T02:14:51;75686.06;;;-145.72;65.36
15914;BME280;8055;51.930;8.840;2023-06-14T02:17:17;75704.69;;;-145.72;66.09
15914;BME280;8055;51.930;8.840;2023-06-14T02:19:42;75700.53;;;-145.72;66.36
15914;BME280;8055;51.930;8.840;2023-06-14T02:22:08;75710.88;;;-145.72;68.50
15914;BME280;8055;51.930;8.840;2023-06-14T02:24:33;75708.81;;;-145.72;69.52
15914;BME280;8055;51.930;8.840;2023-06-14T02:26:59;75721.22;;;-145.72;69.84
15914;BME280;8055;51.930;8.840;2023-06-14T02:29:25;75727.44;;;-145.72;68.79
15914;BME280;8055;51.930;8.840;2023-06-14T02:31:50;75735.72;;;-145.72;69.61
15914;BME280;8055;51.930;8.840;2023-06-14T02:34:16;75731.56;;;-145.72;67.86
15914;BME280;8055;51.930;8.840;2023-06-14T02:36:45;75756.41;;;-145.72;70.70
15914;BME280;8055;51.930;8.840;2023-06-14T02:39:11;75746.06;;;-145.72;68.29
15914;BME280;8055;51.930;8.840;2023-06-14T02:41:36;75754.34;;;-145.72;69.02
15914;BME280;8055;51.930;8.840;2023-06-14T02:44:02;75756.41;;;-145.72;72.07
15914;BME280;8055;51.930;8.840;2023-06-14T02:46:27;75756.41;;;-145.72;71.42
15914;BME280;8055;51.930;8.840;2023-06-14T02:48:53;75766.75;;;-145.72;68.69
15914;BME280;8055;51.930;8.840;2023-06-14T02:51:18;75787.44;;;-145.72;72.62
15914;BME280;8055;51.930;8.840;2023-06-14T02:53:44;75785.38;;;-145.72;72.07
15914;BME280;8055;51.930;8.840;2023-06-14T02:56:10;75781.25;;;-145.72;74.01
15914;BME280;8055;51.930;8.840;2023-06-14T02:58:37;75775.03;;;-145.72;70.80
15914;BME280;8055;51.930;8.840;2023-06-14T03:01:04;75783.31;;;-145.72;71.39
15914;BME280;8055;51.930;8.840;2023-06-14T03:03:31;75775.03;;;-145.72;70.92
15914;BME280;8055;51.930;8.840;2023-06-14T03:05:56;75799.88;;;-145.72;71.27
15914;BME280;8055;51.930;8.840;2023-06-14T03:08:22;75804.00;;;-145.72;70.10
15914;BME280;8055;51.930;8.840;2023-06-14T03:10:52;75816.41;;;-145.72;73.77
15914;BME280;8055;51.930;8.840;2023-06-14T03:13:18;75814.34;;;-145.72;71.41
15914;BME280;8055;51.930;8.840;2023-06-14T03:15:46;75810.22;;;-145.72;73.94
15914;BME280;8055;51.930;8.840;2023-06-14T03:18:13;75824.69;;;-145.72;73.87
15914;BME280;8055;51.930;8.840;2023-06-14T03:20:40;75835.03;;;-145.72;71.31
15914;BME280;8055;51.930;8.840;2023-06-14T03:23:06;75839.19;;;-145.72;74.55
15914;BME280;8055;51.930;8.840;2023-06-14T03:25:32;75832.97;;;-145.72;72.27
15914;BME280;8055;51.930;8.840;2023-06-14T03:28:06;75824.69;;;-145.72;72.47
15914;BME280;8055;51.930;8.840;2023-06-14T03:30:32;75837.09;;;-145.72;73.32
15914;BME280;8055;51.930;8.840;2023-06-14T03:32:58;75835.03;;;-145.72;76.50
15914;BME280;8055;51.930;8.840;2023-06-14T03:35:27;75832.97;;;-145.72;71.38
15914;BME280;8055;51.930;8.840;2023-06-14T03:37:53;75830.91;;;-145.72;73.32
15914;BME280;8055;51.930;8.840;2023-06-14T03:40:19;75845.38;;;-145.72;71.01
15914;BME280;8055;51.930;8.840;2023-06-14T03:42:45;75874.34;;;-145.72;75.21
15914;BME280;8055;51.930;8.840;2023-06-14T03:45:10;75861.94;;;-145.72;72.44
15914;BME280;8055;51.930;8.840;2023-06-14T03:47:36;75874.34;;;-145.72;77.90
15914;BME280;8055;51.930;8.840;2023-06-14T03:50:04;75884.69;;;-145.72;76.62
15914;BME280;8055;51.930;8.840;2023-06-14T03:52:31;75899.19;;;-145.72;79.72
15914;BME280;8055;51.930;8.840;2023-06-14T03:54:58;75892.97;;;-145.72;75.20
15914;BME280;8055;51.930;8.840;2023-06-14T03:57:25;75882.63;;;-145.72;79.15
15914;BME280;8055;51.930;8.840;2023-06-14T03:59:51;75907.47;;;-145.72;80.34
15914;BME280;8055;51.930;8.840;2023-06-14T04:02:17;75895.03;;;-145.72;80.21
15914;BME280;8055;51.930;8.840;2023-06-14T04:04:43;75882.63;;;-145.72;79.12
15914;BME280;8055;51.930;8.840;2023-06-14T04:07:14;75882.63;;;-145.72;76.53
15914;BME280;8055;51.930;8.840;2023-06-14T04:09:40;75866.06;;;-145.72;76.48
15914;BME280;8055;51.930;8.840;2023-06-14T04:12:07;75878.50;;;-145.72;80.65
15914;BME280;8055;51.930;8.840;2023-06-14T04:14:34;75864.00;;;-145.72;75.88
15914;BME280;8055;51.930;8.840;2023-06-14T04:17:00;75839.19;;;-145.72;79.64
15914;BME280;8055;51.930;8.840;2023-06-14T04:19:26;75835.03;;;-145.72;78.21
15914;BME280;8055;51.930;8.840;2023-06-14T04:21:52;75814.34;;;-145.72;76.84
15914;BME280;8055;51.930;8.840;2023-06-14T04:24:17;75801.94;;;-145.72;78.86
15914;BME280;8055;51.930;8.840;2023-06-14T04:26:43;75785.38;;;-145.72;73.03
15914;BME280;8055;51.930;8.840;2023-06-14T04:29:14;75777.09;;;-145.72;75.17
15914;BME280;8055;51.930;8.840;2023-06-14T04:31:42;75758.47;;;-145.72;76.37
15914;BME280;8055;51.930;8.840;2023-06-14T04:34:08;75746.06;;;-145.72;74.64
15914;BME280;8055;51.930;8.840;2023-06-14T04:36:35;75725.38;;;-145.72;70.83
15914;BME280;8055;51.930;8.840;2023-06-14T04:39:03;75721.22;;;-145.72;72.44
15914;BME280;8055;51.930;8.840;2023-06-14T04:41:29;75706.75;;;-145.72;70.83
15914;BME280;8055;51.930;8.840;2023-06-14T04:43:56;75696.41;;;-145.72;70.35
15914;BME280;8055;51.930;8.840;2023-06-14T04:46:24;75684.00;;;-145.72;69.72
15914;BME280;8055;51.930;8.840;2023-06-14T04:48:49;75669.50;;;-145.72;67.96
15914;BME280;8055;51.930;8.840;2023-06-14T04:51:15;75652.94;;;-145.72;67.12
15914;BME280;8055;51.930;8.840;2023-06-14T04:53:41;75655.03;;;-145.72;68.75
15914;BME280;8055;51.930;8.840;2023-06-14T04:56:08;75626.06;;;-145.72;66.91
15914;BME280;8055;51.930;8.840;2023-06-14T04:58:33;75621.91;;;-145.72;68.76
15914;BME280;8055;51.930;8.840;2023-06-14T05:00:59;75621.91;;;-145.72;67.85
15914;BME280;8055;51.930;8.840;2023-06-14T05:03:25;75609.50;;;-145.72;68.19
15914;BME280;8055;51.930;8.840;2023-06-14T05:05:52;75599.16;;;-145.72;67.77
15914;BME280;8055;51.930;8.840;2023-06-14T05:08:18;75580.53;;;-145.72;66.55
15914;BME280;8055;51.930;8.840;2023-06-14T05:10:44;75568.13;;;-145.72;67.31
15914;BME280;8055;51.930;8.840;2023-06-14T05:13:09;75553.63;;;-145.72;66.93
15914;BME280;8055;51.930;8.840;2023-06-14T05:15:35;75535.00;;;-145.72;65.35
15914;BME280;8055;51.930;8.840;2023-06-14T05:18:01;75543.28;;;-145.72;65.21
15914;BME280;8055;51.930;8.840;2023-06-14T05:20:29;75518.44;;;-145.72;64.75
15914;BME280;8055;51.930;8.840;2023-06-14T05:22:54;75506.03;;;-145.72;64.50
15914;BME280;8055;51.930;8.840;2023-06-14T05:25:22;75503.97;;;-145.72;64.22
15914;BME280;8055;51.930;8.840;2023-06-14T05:27:48;75497.75;;;-145.72;63.98
15914;BME280;8055;51.930;8.840;2023-06-14T05:30:15;75493.63;;;-145.72;65.63
15914;BME280;8055;51.930;8.840;2023-06-14T05:32:41;75466.72;;;-145.72;64.11
15914;BME280;8055;51.930;8.840;2023-06-14T05:35:07;75481.22;;;-145.72;63.47
15914;BME280;8055;51.930;8.840;2023-06-14T05:37:33;75462.59;;;-145.72;63.01
15914;BME280;8055;51.930;8.840;2023-06-14T05:39:58;75466.72;;;-145.72;62.70
15914;BME280;8055;51.930;8.840;2023-06-14T05:42:24;75458.44;;;-145.72;63.02
15914;BME280;8055;51.930;8.840;2023-06-14T05:44:49;75448.09;;;-145.72;63.62
15914;BME280;8055;51.930;8.840;2023-06-14T05:47:14;75427.41;;;-145.72;63.27
15914;BME280;8055;51.930;8.840;2023-06-14T05:49:40;75433.63;;;-145.72;61.82
15914;BME280;8055;51.930;8.840;2023-06-14T05:52:06;75435.69;;;-145.72;61.56
15914;BME280;8055;51.930;8.840;2023-06-14T05:54:32;75429.47;;;-145.72;60.93
15914;BME280;8055;51.930;8.840;2023-06-14T05:56:57;75435.69;;;-145.72;60.55
15914;BME280;8055;51.930;8.840;2023-06-14T05:59:27;75435.69;;;-145.72;60.49
15914;BME280;8055;51.930;8.840;2023-06-14T06:01:53;75429.47;;;-145.72;60.38
15914;BME280;8055;51.930;8.840;2023-06-14T06:04:19;75456.38;;;-145.72;60.78
15914;BME280;8055;51.930;8.840;2023-06-14T06:06:45;75441.91;;;-145.72;61.27
15914;BME280;8055;51.930;8.840;2023-06-14T06:09:12;75425.34;;;-145.72;61.04
15914;BME280;8055;51.930;8.840;2023-06-14T06:11:37;75439.81;;;-145.72;59.72
15914;BME280;8055;51.930;8.840;2023-06-14T06:14:02;75446.03;;;-145.72;60.05
15914;BME280;8055;51.930;8.840;2023-06-14T06:16:28;75443.97;;;-145.72;60.15
15914;BME280;8055;51.930;8.840;2023-06-14T06:18:53;75435.69;;;-145.72;60.12
15914;BME280;8055;51.930;8.840;2023-06-14T06:21:19;75431.56;;;-145.72;60.04
15914;BME280;8055;51.930;8.840;2023-06-14T06:23:45;75431.56;;;-145.72;60.08
15914;BME280;8055;51.930;8.840;2023-06-14T06:26:10;75450.19;;;-145.72;59.62
15914;BME280;8055;51.930;8.840;2023-06-14T06:28:35;75425.34;;;-145.72;60.20
15914;BME280;8055;51.930;8.840;2023-06-14T06:31:01;75423.28;;;-145.72;59.61
15914;BME280;8055;51.930;8.840;2023-06-14T06:33:26;75429.47;;;-145.72;58.94
15914;BME280;8055;51.930;8.840;2023-06-14T06:35:51;75417.06;;;-145.72;59.56
15914;BME280;8055;51.930;8.840;2023-06-14T06:38:17;75410.88;;;-145.72;59.01
15914;BME280;8055;51.930;8.840;2023-06-14T06:40:44;75423.28;;;-145.72;59.55
15914;BME280;8055;51.930;8.840;2023-06-14T06:43:10;75415.00;;;-145.72;59.47
15914;BME280;8055;51.930;8.840;2023-06-14T06:45:39;75400.50;;;-145.72;58.42
15914;BME280;8055;51.930;8.840;2023-06-14T06:48:05;75406.72;;;-145.72;58.88
15914;BME280;8055;51.930;8.840;2023-06-14T06:50:30;75402.59;;;-145.72;59.00
15914;BME280;8055;51.930;8.840;2023-06-14T06:52:56;75398.44;;;-145.72;58.43
15914;BME280;8055;51.930;8.840;2023-06-14T06:55:23;75396.38;;;-145.72;58.41
15914;BME280;8055;51.930;8.840;2023-06-14T06:57:48;75383.97;;;-145.72;58.20
15914;BME280;8055;51.930;8.840;2023-06-14T07:00:15;75381.91;;;-145.72;58.23
15914;BME280;8055;51.930;8.840;2023-06-14T07:02:42;75371.56;;;-145.72;58.11
15914;BME280;8055;51.930;8.840;2023-06-14T07:05:08;75359.13;;;-145.72;57.34
15914;BME280;8055;51.930;8.840;2023-06-14T07:07:34;75352.94;;;-145.72;58.09
15914;BME280;8055;51.930;8.840;2023-06-14T07:10:00;75346.72;;;-145.72;57.63
15914;BME280;8055;51.930;8.840;2023-06-14T07:12:28;75348.78;;;-145.72;55.76
15914;BME280;8055;51.930;8.840;2023-06-14T07:14:55;75344.66;;;-145.72;55.46
15914;BME280;8055;51.930;8.840;2023-06-14T07:17:20;75336.38;;;-145.72;55.53
15914;BME280;8055;51.930;8.840;2023-06-14T07:19:46;75328.09;;;-145.72;55.06
15914;BME280;8055;51.930;8.840;2023-06-14T07:22:12;75332.25;;;-145.72;55.47
15914;BME280;8055;51.930;8.840;2023-06-14T07:24:37;75323.97;;;-145.72;55.27
15914;BME280;8055;51.930;8.840;2023-06-14T07:27:03;75315.69;;;-145.72;55.33
15914;BME280;8055;51.930;8.840;2023-06-14T07:29:29;75292.94;;;-145.72;55.30
15914;BME280;8055;51.930;8.840;2023-06-14T07:31:55;75290.84;;;-145.72;55.07
15914;BME280;8055;51.930;8.840;2023-06-14T07:34:20;75282.59;;;-145.72;53.53
15914;BME280;8055;51.930;8.840;2023-06-14T07:36:46;75276.38;;;-145.72;53.50
15914;BME280;8055;51.930;8.840;2023-06-14T07:39:12;75282.59;;;-145.72;52.49
15914;BME280;8055;51.930;8.840;2023-06-14T07:41:39;75282.59;;;-145.72;53.83
15914;BME280;8055;51.930;8.840;2023-06-14T07:44:05;75268.09;;;-145.72;54.55
15914;BME280;8055;51.930;8.840;2023-06-14T07:46:30;75257.75;;;-145.72;53.49
15914;BME280;8055;51.930;8.840;2023-06-14T07:48:56;75247.41;;;-145.72;54.06
15914;BME280;8055;51.930;8.840;2023-06-14T07:51:22;75241.19;;;-145.72;54.76
15914;BME280;8055;51.930;8.840;2023-06-14T07:53:49;75218.44;;;-145.72;53.88
15914;BME280;8055;51.930;8.840;2023-06-14T07:56:14;75218.44;;;-145.72;53.34
15914;BME280;8055;51.930;8.840;2023-06-14T07:58:40;75212.25;;;-145.72;53.55
15914;BME280;8055;51.930;8.840;2023-06-14T08:01:05;75203.97;;;-145.72;53.38
15914;BME280;8055;51.930;8.840;2023-06-14T08:03:34;75193.63;;;-145.72;53.10
15914;BME280;8055;51.930;8.840;2023-06-14T08:06:00;75187.41;;;-145.72;51.72
15914;BME280;8055;51.930;8.840;2023-06-14T08:08:26;75172.94;;;-145.72;51.42
15914;BME280;8055;51.930;8.840;2023-06-14T08:10:52;75189.47;;;-145.72;52.07
15914;BME280;8055;51.930;8.840;2023-06-14T08:13:17;75189.47;;;-145.72;51.56
15914;BME280;8055;51.930;8.840;2023-06-14T08:15:43;75193.63;;;-145.72;51.04
15914;BME280;8055;51.930;8.840;2023-06-14T08:18:09;75183.28;;;-145.72;52.36
15914;BME280;8055;51.930;8.840;2023-06-14T08:20:35;75166.72;;;-145.72;51.67
15914;BME280;8055;51.930;8.840;2023-06-14T08:23:02;75156.38;;;-145.72;51.05
15914;BME280;8055;51.930;8.840;2023-06-14T08:25:30;75150.16;;;-145.72;51.78
15914;BME280;8055;51.930;8.840;2023-06-14T08:27:55;75133.63;;;-145.72;51.05
15914;BME280;8055;51.930;8.840;2023-06-14T08:30:21;75104.66;;;-145.72;52.10
15914;BME280;8055;51.930;8.840;2023-06-14T08:32:46;75106.72;;;-145.72;51.04
15914;BME280;8055;51.930;8.840;2023-06-14T08:35:12;75098.44;;;-145.72;51.47
15914;BME280;8055;51.930;8.840;2023-06-14T08:37:42;75063.28;;;-145.72;50.83
15914;BME280;8055;51.930;8.840;2023-06-14T08:40:22;75069.47;;;-145.72;50.12
15914;BME280;8055;51.930;8.840;2023-06-14T08:42:50;75040.53;;;-145.72;50.93
15914;BME280;8055;51.930;8.840;2023-06-14T08:45:16;75034.31;;;-145.72;50.65
15914;BME280;8055;51.930;8.840;2023-06-14T08:47:43;75046.72;;;-145.72;48.25
15914;BME280;8055;51.930;8.840;2023-06-14T08:50:09;75059.13;;;-145.72;49.39
15914;BME280;8055;51.930;8.840;2023-06-14T08:52:38;75042.59;;;-145.72;49.93
15914;BME280;8055;51.930;8.840;2023-06-14T08:57:41;75042.59;;;-145.72;50.41
15914;BME280;8055;51.930;8.840;2023-06-14T09:00:07;75055.00;;;-145.72;50.79
15914;BME280;8055;51.930;8.840;2023-06-14T09:02:41;75013.63;;;-145.72;50.48
15914;BME280;8055;51.930;8.840;2023-06-14T09:05:10;75009.50;;;-145.72;49.71
15914;BME280;8055;51.930;8.840;2023-06-14T09:07:37;74982.59;;;-145.72;50.54
15914;BME280;8055;51.930;8.840;2023-06-14T09:10:13;74984.66;;;-145.72;49.32
15914;BME280;8055;51.930;8.840;2023-06-14T09:12:40;75017.75;;;-145.72;48.97
15914;BME280;8055;51.930;8.840;2023-06-14T09:15:06;74978.47;;;-145.72;49.55
15914;BME280;8055;51.930;8.840;2023-06-14T09:17:35;74982.59;;;-145.72;49.00
15914;BME280;8055;51.930;8.840;2023-06-14T09:20:04;75003.28;;;-145.72;48.21
15914;BME280;8055;51.930;8.840;2023-06-14T09:22:43;74988.81;;;-145.72;48.57
15914;BME280;8055;51.930;8.840;2023-06-14T09:25:09;74968.13;;;-145.72;48.94
15914;BME280;8055;51.930;8.840;2023-06-14T09:27:35;74939.16;;;-145.72;47.72
15914;BME280;8055;51.930;8.840;2023-06-14T09:30:02;75001.22;;;-145.72;46.78
15914;BME280;8055;51.930;8.840;2023-06-14T09:32:28;74988.81;;;-145.72;48.83
15914;BME280;8055;51.930;8.840;2023-06-14T09:34:54;74947.44;;;-145.72;48.33
15914;BME280;8055;51.930;8.840;2023-06-14T09:37:30;74901.91;;;-145.72;48.59
15914;BME280;8055;51.930;8.840;2023-06-14T09:39:56;74858.47;;;-145.72;47.99
15914;BME280;8055;51.930;8.840;2023-06-14T09:42:22;74829.50;;;-145.72;47.42
15914;BME280;8055;51.930;8.840;2023-06-14T09:44:52;74821.22;;;-145.72;45.81
15914;BME280;8055;51.930;8.840;2023-06-14T09:47:19;74825.38;;;-145.72;45.90
15914;BME280;8055;51.930;8.840;2023-06-14T09:49:45;74806.75;;;-145.72;46.80
15914;BME280;8055;51.930;8.840;2023-06-14T09:52:17;74790.19;;;-145.72;45.89
15914;BME280;8055;51.930;8.840;2023-06-14T09:54:44;74802.63;;;-145.72;44.36
15914;BME280;8055;51.930;8.840;2023-06-14T09:57:13;74831.56;;;-145.72;45.22
15914;BME280;8055;51.930;8.840;2023-06-14T09:59:44;74817.09;;;-145.72;45.65
15914;BME280;8055;51.930;8.840;2023-06-14T10:02:34;74817.09;;;-145.72;45.33
15914;BME280;8055;51.930;8.840;2023-06-14T10:05:08;74808.81;;;-145.72;46.02
15914;BME280;8055;51.930;8.840;2023-06-14T10:07:40;74788.13;;;-145.72;45.18
15914;BME280;8055;51.930;8.840;2023-06-14T10:10:08;74784.00;;;-145.72;45.21
15914;BME280;8055;51.930;8.840;2023-06-14T10:12:33;74786.06;;;-145.72;45.15
15914;BME280;8055;51.930;8.840;2023-06-14T10:14:59;74759.16;;;-145.72;45.24
15914;BME280;8055;51.930;8.840;2023-06-14T10:17:35;74732.28;;;-145.72;44.64
15914;BME280;8055;51.930;8.840;2023-06-14T10:20:14;74711.59;;;-145.72;44.64
15914;BME280;8055;51.930;8.840;2023-06-14T10:22:47;74709.53;;;-145.72;44.35
15914;BME280;8055;51.930;8.840;2023-06-14T10:25:26;74690.91;;;-145.72;43.38
15914;BME280;8055;51.930;8.840;2023-06-14T10:27:53;74692.97;;;-145.72;43.45
15914;BME280;8055;51.930;8.840;2023-06-14T10:30:25;74661.94;;;-145.72;44.17
15914;BME280;8055;51.930;8.840;2023-06-14T10:33:07;74645.38;;;-145.72;44.45
15914;BME280;8055;51.930;8.840;2023-06-14T10:35:33;74697.09;;;-145.72;42.98
15914;BME280;8055;51.930;8.840;2023-06-14T10:38:12;74653.66;;;-145.72;43.82
15914;BME280;8055;51.930;8.840;2023-06-14T10:40:38;74674.34;;;-145.72;42.48
15914;BME280;8055;51.930;8.840;2023-06-14T10:43:31;74709.53;;;-145.72;42.85
15914;BME280;8055;51.930;8.840;2023-06-14T10:46:18;74670.22;;;-145.72;43.47
15914;BME280;8055;51.930;8.840;2023-06-14T10:48:47;74647.47;;;-145.72;43.38
15914;BME280;8055;51.930;8.840;2023-06-14T10:51:19;74624.69;;;-145.72;42.43
15914;BME280;8055;51.930;8.840;2023-06-14T10:53:49;74620.56;;;-145.72;42.89
15914;BME280;8055;51.930;8.840;2023-06-14T10:56:31;74595.75;;;-145.72;41.79
15914;BME280;8055;51.930;8.840;2023-06-14T10:58:57;74589.53;;;-145.72;41.19
15914;BME280;8055;51.930;8.840;2023-06-14T11:01:37;74554.38;;;-145.72;41.74
15914;BME280;8055;51.930;8.840;2023-06-14T11:04:07;74562.66;;;-145.72;41.34
15914;BME280;8055;51.930;8.840;2023-06-14T11:07:10;74546.09;;;-145.72;41.63
15914;BME280;8055;51.930;8.840;2023-06-14T11:12:48;74535.75;;;-145.72;41.54
15914;BME280;8055;51.930;8.840;2023-06-14T11:15:14;74548.16;;;-145.72;40.50
15914;BME280;8055;51.930;8.840;2023-06-14T11:17:50;74510.94;;;-145.72;41.27
15914;BME280;8055;51.930;8.840;2023-06-14T11:20:16;74463.34;;;-145.72;40.59
15914;BME280;8055;51.930;8.840;2023-06-14T11:22:42;74442.66;;;-145.72;40.07
15914;BME280;8055;51.930;8.840;2023-06-14T11:25:09;74448.88;;;-145.72;39.14
15914;BME280;8055;51.930;8.840;2023-06-14T11:27:35;74494.38;;;-145.72;39.85
15914;BME280;8055;51.930;8.840;2023-06-14T11:30:00;74488.19;;;-145.72;39.73
15914;BME280;8055;51.930;8.840;2023-06-14T11:32:26;74490.25;;;-145.72;40.45
15914;BME280;8055;51.930;8.840;2023-06-14T11:34:51;74465.41;;;-145.72;40.85
15914;BME280;8055;51.930;8.840;2023-06-14T11:37:17;74477.84;;;-145.72;38.87
15914;BME280;8055;51.930;8.840;2023-06-14T11:39:44;74432.31;;;-145.72;38.97
15914;BME280;8055;51.930;8.840;2023-06-14T11:42:14;74479.91;;;-145.72;39.18
15914;BME280;8055;51.930;8.840;2023-06-14T11:44:40;74541.97;;;-145.72;40.27
15914;BME280;8055;51.930;8.840;2023-06-14T11:47:06;74502.66;;;-145.72;39.28
15914;BME280;8055;51.930;8.840;2023-06-14T11:49:35;74550.22;;;-145.72;40.20
15914;BME280;8055;51.930;8.840;2023-06-14T11:52:01;74591.59;;;-145.72;39.83
15914;BME280;8055;51.930;8.840;2023-06-14T11:54:27;74647.47;;;-145.72;40.71
15914;BME280;8055;51.930;8.840;2023-06-14T11:56:53;74570.91;;;-145.72;40.33
15914;BME280;8055;51.930;8.840;2023-06-14T11:59:20;74539.88;;;-145.72;39.35
15914;BME280;8055;51.930;8.840;2023-06-14T12:01:47;74502.66;;;-145.72;39.88
15914;BME280;8055;51.930;8.840;2023-06-14T12:04:13;74432.31;;;-145.72;39.56
15914;BME280;8055;51.930;8.840;2023-06-14T12:06:39;74378.53;;;-145.72;38.91
15914;BME280;8055;51.930;8.840;2023-06-14T12:09:05;74428.19;;;-145.72;38.16
15914;BME280;8055;51.930;8.840;2023-06-14T12:11:34;74438.53;;;-145.72;37.96
15914;BME280;8055;51.930;8.840;2023-06-14T12:14:00;74471.63;;;-145.72;38.40
15914;BME280;8055;51.930;8.840;2023-06-14T12:16:31;74450.94;;;-145.72;39.14
15914;BME280;8055;51.930;8.840;2023-06-14T12:19:00;74413.72;;;-145.72;38.12
15914;BME280;8055;51.930;8.840;2023-06-14T12:21:27;74401.28;;;-145.72;38.35
15914;BME280;8055;51.930;8.840;2023-06-14T12:23:54;74498.53;;;-145.72;38.23
15914;BME280;8055;51.930;8.840;2023-06-14T12:26:20;74455.06;;;-145.72;38.13
15914;BME280;8055;51.930;8.840;2023-06-14T12:28:47;74388.88;;;-145.72;39.26
15914;BME280;8055;51.930;8.840;2023-06-14T12:31:14;74455.06;;;-145.72;38.18
15914;BME280;8055;51.930;8.840;2023-06-14T12:33:40;74430.25;;;-145.72;37.13
15914;BME280;8055;51.930;8.840;2023-06-14T12:36:07;74386.81;;;-145.72;38.40
15914;BME280;8055;51.930;8.840;2023-06-14T12:38:33;74308.22;;;-145.72;37.69
15914;BME280;8055;51.930;8.840;2023-06-14T12:40:59;74287.53;;;-145.72;37.18
15914;BME280;8055;51.930;8.840;2023-06-14T12:43:24;74250.28;;;-145.72;36.39
15914;BME280;8055;51.930;8.840;2023-06-14T12:45:50;74266.84;;;-145.72;36.79
15914;BME280;8055;51.930;8.840;2023-06-14T12:48:15;74219.28;;;-145.72;36.49
15914;BME280;8055;51.930;8.840;2023-06-14T12:50:41;74227.53;;;-145.72;36.34
15914;BME280;8055;51.930;8.840;2023-06-14T12:53:08;74246.16;;;-145.72;35.76
15914;BME280;8055;51.930;8.840;2023-06-14T12:55:33;74248.22;;;-145.72;34.84
15914;BME280;8055;51.930;8.840;2023-06-14T12:57:59;74359.94;;;-145.72;35.91